createdAt,value
2019-04-22T00:01:24.441Z,8.55
2019-04-22T00:03:55.238Z,8.53
2019-04-22T00:06:46.487Z,8.70
2019-04-22T00:09:17.368Z,9.48
2019-04-22T00:11:53.232Z,8.68
2019-04-22T00:14:13.103Z,7.03
2019-04-22T00:16:52.830Z,14.40
2019-04-22T00:22:00.547Z,9.13
2019-04-22T00:24:24.285Z,7.67
2019-04-22T00:26:59.949Z,12.37
2019-04-22T00:32:05.493Z,9.15
2019-04-22T00:34:42.711Z,7.55
2019-04-22T00:37:17.217Z,7.92
2019-04-22T00:39:46.560Z,10.70
2019-04-22T00:42:18.196Z,11.50
2019-04-22T00:44:58.166Z,11.08
2019-04-22T00:47:23.211Z,11.35
2019-04-22T00:52:22.359Z,8.08
2019-04-22T00:54:58.903Z,9.78
2019-04-22T00:57:21.439Z,12.50
2019-04-22T00:59:57.267Z,11.55
2019-04-22T01:02:31.001Z,9.53
2019-04-22T01:05:02.778Z,14.80
2019-04-22T01:07:30.487Z,10.88
2019-04-22T01:12:34.336Z,10.28
2019-04-22T01:15:02.048Z,10.20
2019-04-22T01:17:32.937Z,9.55
2019-04-22T01:20:10.375Z,9.18
2019-04-22T01:22:34.218Z,10.28
2019-04-22T01:25:02.452Z,11.70
2019-04-22T01:27:30.700Z,8.10
2019-04-22T01:29:59.794Z,9.83
2019-04-22T01:32:26.220Z,11.48
2019-04-22T01:35:04.774Z,10.75
2019-04-22T01:37:43.344Z,9.50
2019-04-22T01:40:21.449Z,10.98
2019-04-22T01:42:55.832Z,10.43
2019-04-22T01:45:20.096Z,9.93
2019-04-22T01:47:49.140Z,8.25
2019-04-22T01:50:28.670Z,10.10
2019-04-22T01:52:59.156Z,8.75
2019-04-22T01:57:53.581Z,7.55
2019-04-22T02:00:25.467Z,9.80
2019-04-22T02:02:59.680Z,10.35
2019-04-22T02:05:31.519Z,8.38
2019-04-22T02:08:09.633Z,12.55
2019-04-22T02:10:54.982Z,11.50
2019-04-22T02:13:11.534Z,10.70
2019-04-22T02:15:31.039Z,13.10
2019-04-22T02:18:11.754Z,13.28
2019-04-22T02:20:38.763Z,10.60
2019-04-22T02:23:43.879Z,8.75
2019-04-22T02:26:03.947Z,15.15
2019-04-22T02:28:38.332Z,14.00
2019-04-22T02:31:20.117Z,10.70
2019-04-22T02:41:26.112Z,12.43
2019-04-22T02:43:55.380Z,12.47
2019-04-22T02:47:14.096Z,12.55
2019-04-22T02:59:05.903Z,11.40
2019-04-22T03:01:31.367Z,10.85
2019-04-22T03:04:00.695Z,10.48
2019-04-22T03:09:01.258Z,12.98
2019-04-22T03:11:25.325Z,10.45
2019-04-22T03:16:33.257Z,9.90
2019-04-22T03:21:28.057Z,11.78
2019-04-22T03:24:20.338Z,19.60
2019-04-22T03:26:35.189Z,11.78
2019-04-22T03:29:15.093Z,12.30
2019-04-22T03:37:30.032Z,12.68
2019-04-22T03:49:50.066Z,14.90
2019-04-22T03:52:10.739Z,13.20
2019-04-22T03:55:00.714Z,12.37
2019-04-22T03:57:31.168Z,11.83
2019-04-22T03:59:43.695Z,13.18
2019-04-22T04:02:21.499Z,12.93
2019-04-22T04:04:37.218Z,12.85
2019-04-22T04:07:22.475Z,10.93
2019-04-22T04:12:13.885Z,13.48
2019-04-22T04:17:20.277Z,11.80
2019-04-22T04:22:30.727Z,15.13
2019-04-22T04:27:43.573Z,12.78
2019-04-22T04:30:14.744Z,11.40
2019-04-22T04:32:38.755Z,10.60
2019-04-22T04:40:05.668Z,11.45
2019-04-22T04:47:43.812Z,17.12
2019-04-22T04:50:12.256Z,13.93
2019-04-22T04:52:57.697Z,12.70
2019-04-22T04:55:11.294Z,12.90
2019-04-22T04:57:44.495Z,14.30
2019-04-22T05:00:31.996Z,11.15
2019-04-22T05:05:14.447Z,13.83
2019-04-22T05:07:40.884Z,11.40
2019-04-22T05:10:38.479Z,13.68
2019-04-22T05:15:21.070Z,12.93
2019-04-22T05:17:43.664Z,10.38
2019-04-22T05:20:37.419Z,10.82
2019-04-22T05:22:43.108Z,13.72
2019-04-22T05:25:11.745Z,13.35
2019-04-22T05:30:23.409Z,15.55
2019-04-22T05:32:44.658Z,16.27
2019-04-22T05:35:14.419Z,16.45
2019-04-22T05:37:51.911Z,16.07
2019-04-22T05:40:20.054Z,21.77
2019-04-22T05:42:51.300Z,14.33
2019-04-22T05:47:52.319Z,16.12
2019-04-22T05:50:19.032Z,19.75
2019-04-22T05:52:54.158Z,15.65
2019-04-22T05:55:34.372Z,17.95
2019-04-22T05:57:57.787Z,15.88
2019-04-22T06:03:06.777Z,16.60
2019-04-22T06:05:33.111Z,17.15
2019-04-22T06:08:01.021Z,17.10
2019-04-22T06:10:43.325Z,26.90
2019-04-22T06:13:01.724Z,16.20
2019-04-22T06:15:36.271Z,15.50
2019-04-22T06:18:20.563Z,20.97
2019-04-22T06:20:57.576Z,21.52
2019-04-22T06:23:30.673Z,19.23
2019-04-22T06:28:38.743Z,19.55
2019-04-22T06:30:57.387Z,20.02
2019-04-22T06:33:30.189Z,18.30
2019-04-22T06:36:02.077Z,15.30
2019-04-22T06:38:36.144Z,21.20
2019-04-22T06:41:07.317Z,16.62
2019-04-22T06:43:51.482Z,23.62
2019-04-22T06:46:00.704Z,15.53
2019-04-22T06:48:31.076Z,18.07
2019-04-22T06:51:00.074Z,15.15
2019-04-22T06:53:36.813Z,20.00
2019-04-22T06:56:05.137Z,14.90
2019-04-22T06:58:36.902Z,26.73
2019-04-22T07:01:13.803Z,16.90
2019-04-22T07:03:53.579Z,18.30
2019-04-22T07:06:14.414Z,12.85
2019-04-22T07:09:06.630Z,15.55
2019-04-22T07:11:06.276Z,11.95
2019-04-22T07:13:42.905Z,13.83
2019-04-22T07:16:18.707Z,14.35
2019-04-22T07:21:12.418Z,22.93
2019-04-22T07:23:51.392Z,18.90
2019-04-22T07:26:16.237Z,15.95
2019-04-22T07:28:49.037Z,11.10
2019-04-22T07:31:20.618Z,19.95
2019-04-22T07:33:51.958Z,17.57
2019-04-22T07:38:47.171Z,15.30
2019-04-22T07:41:28.819Z,10.78
2019-04-22T07:46:35.457Z,14.13
2019-04-22T07:48:57.507Z,12.43
2019-04-22T07:51:32.849Z,13.03
2019-04-22T07:54:01.789Z,11.30
2019-04-22T07:56:29.307Z,10.70
2019-04-22T07:59:04.139Z,11.10
2019-04-22T08:01:30.487Z,7.83
2019-04-22T08:04:17.150Z,11.33
2019-04-22T08:06:36.215Z,11.78
2019-04-22T08:09:14.165Z,11.12
2019-04-22T08:11:50.009Z,7.53
2019-04-22T08:14:17.586Z,8.68
2019-04-22T08:16:46.050Z,12.00
2019-04-22T08:19:23.581Z,7.62
2019-04-22T08:21:45.483Z,9.45
2019-04-22T08:24:18.057Z,9.30
2019-04-22T08:26:45.384Z,12.35
2019-04-22T08:29:23.187Z,10.18
2019-04-22T08:32:01.223Z,11.55
2019-04-22T08:34:19.576Z,6.45
2019-04-22T08:37:11.830Z,7.80
2019-04-22T08:41:43.533Z,8.10
2019-04-22T08:44:49.651Z,12.37
2019-04-22T08:47:04.228Z,9.55
2019-04-22T08:49:34.407Z,8.90
2019-04-22T08:52:01.063Z,8.15
2019-04-22T08:54:32.465Z,7.08
2019-04-22T08:57:01.886Z,13.53
2019-04-22T08:59:31.257Z,13.55
2019-04-22T09:02:09.315Z,8.33
2019-04-22T09:04:35.866Z,11.22
2019-04-22T09:12:21.272Z,4.85
2019-04-22T09:14:42.162Z,6.83
2019-04-22T09:17:14.851Z,12.88
2019-04-22T09:19:40.401Z,9.25
2019-04-22T09:24:46.948Z,7.80
2019-04-22T09:27:31.786Z,6.20
2019-04-22T09:29:53.945Z,5.45
2019-04-22T09:32:38.297Z,11.80
2019-04-22T09:34:51.956Z,5.55
2019-04-22T09:37:29.015Z,6.47
2019-04-22T09:40:08.777Z,3.50
2019-04-22T09:42:31.884Z,2.70
2019-04-22T09:45:01.881Z,5.50
2019-04-22T09:47:33.860Z,4.30
2019-04-22T09:50:03.740Z,2.92
2019-04-22T09:52:37.525Z,7.42
2019-04-22T09:55:07.503Z,5.35
2019-04-22T09:57:31.150Z,4.10
2019-04-22T10:00:12.189Z,4.37
2019-04-22T10:07:43.205Z,3.62
2019-04-22T10:10:29.871Z,8.90
2019-04-22T10:12:42.590Z,11.95
2019-04-22T10:15:13.782Z,5.45
2019-04-22T10:17:44.462Z,5.65
2019-04-22T10:20:18.621Z,8.98
2019-04-22T10:22:51.851Z,5.17
2019-04-22T10:25:16.329Z,3.60
2019-04-22T10:27:52.376Z,3.92
2019-04-22T10:30:23.535Z,4.58
2019-04-22T10:32:47.921Z,5.33
2019-04-22T10:35:15.483Z,3.92
2019-04-22T10:37:42.779Z,4.30
2019-04-22T10:40:19.587Z,6.08
2019-04-22T10:42:51.434Z,7.65
2019-04-22T10:45:21.954Z,5.90
2019-04-22T10:47:52.265Z,6.20
2019-04-22T10:50:25.178Z,7.65
2019-04-22T10:52:55.293Z,7.03
2019-04-22T10:55:25.451Z,5.92
2019-04-22T10:57:54.877Z,5.72
2019-04-22T11:00:24.632Z,11.12
2019-04-22T11:02:54.051Z,5.72
2019-04-22T11:05:24.064Z,5.92
2019-04-22T11:07:59.025Z,6.80
2019-04-22T11:10:39.196Z,5.70
2019-04-22T11:12:56.805Z,4.42
2019-04-22T11:15:26.630Z,4.30
2019-04-22T11:17:57.637Z,7.65
2019-04-22T11:20:27.033Z,6.67
2019-04-22T11:22:56.474Z,8.18
2019-04-22T11:25:25.896Z,6.60
2019-04-22T11:27:55.907Z,9.08
2019-04-22T11:30:28.186Z,6.70
2019-04-22T11:32:58.532Z,6.85
2019-04-22T11:35:28.085Z,4.42
2019-04-22T11:37:58.967Z,4.40
2019-04-22T11:40:36.407Z,4.47
2019-04-22T11:42:59.926Z,7.62
2019-04-22T11:45:29.505Z,4.65
2019-04-22T11:47:59.539Z,5.03
2019-04-22T11:50:30.179Z,8.98
2019-04-22T11:53:00.783Z,6.62
2019-04-22T11:55:30.921Z,10.75
2019-04-22T11:58:01.128Z,5.62
2019-04-22T12:00:34.764Z,8.30
2019-04-22T12:03:05.197Z,12.43
2019-04-22T12:05:34.698Z,13.93
2019-04-22T12:08:04.950Z,6.12
2019-04-22T12:10:40.906Z,5.65
2019-04-22T12:13:06.292Z,4.65
2019-04-22T12:15:37.336Z,5.72
2019-04-22T12:18:08.795Z,4.83
2019-04-22T12:20:39.207Z,8.80
2019-04-22T12:23:09.452Z,4.10
2019-04-22T12:25:47.692Z,4.37
2019-04-22T12:28:11.009Z,4.35
2019-04-22T12:30:41.753Z,9.75
2019-04-22T12:33:14.584Z,7.97
2019-04-22T12:35:42.365Z,4.35
2019-04-22T12:38:13.133Z,8.20
2019-04-22T12:40:51.275Z,3.60
2019-04-22T12:43:14.916Z,5.60
2019-04-22T12:45:45.066Z,6.35
2019-04-22T12:48:14.970Z,4.22
2019-04-22T12:50:48.017Z,6.80
2019-04-22T12:53:19.844Z,3.60
2019-04-22T12:55:48.054Z,5.87
2019-04-22T12:58:18.107Z,3.22
2019-04-22T13:00:48.457Z,6.85
2019-04-22T13:03:18.261Z,5.47
2019-04-22T13:05:49.334Z,6.45
2019-04-22T13:08:20.005Z,2.85
2019-04-22T13:10:57.470Z,6.65
2019-04-22T13:13:20.838Z,6.58
2019-04-22T13:15:51.064Z,4.78
2019-04-22T13:18:29.343Z,3.55
2019-04-22T13:20:52.817Z,2.98
2019-04-22T13:23:22.351Z,3.00
2019-04-22T13:25:52.633Z,2.62
2019-04-22T13:28:23.019Z,4.10
2019-04-22T13:30:52.822Z,6.67
2019-04-22T13:33:23.176Z,3.40
2019-04-22T13:35:54.243Z,13.30
2019-04-22T13:38:24.937Z,4.30
2019-04-22T13:41:08.290Z,6.10
2019-04-22T13:43:26.760Z,5.03
2019-04-22T13:45:56.509Z,7.78
2019-04-22T13:48:49.907Z,4.37
2019-04-22T13:54:40.449Z,3.12
2019-04-22T13:56:19.092Z,3.42
2019-04-22T13:58:44.911Z,4.35
2019-04-22T14:01:06.979Z,3.35
2019-04-22T14:03:54.574Z,6.62
2019-04-22T14:06:25.018Z,3.65
2019-04-22T14:08:55.705Z,3.75
2019-04-22T14:11:34.621Z,5.42
2019-04-22T14:13:56.767Z,5.45
2019-04-22T14:16:27.009Z,7.90
2019-04-22T14:18:58.001Z,8.15
2019-04-22T14:21:27.819Z,6.65
2019-04-22T14:23:58.515Z,3.92
2019-04-22T14:26:35.372Z,4.70
2019-04-22T14:29:01.772Z,14.13
2019-04-22T14:31:32.684Z,7.12
2019-04-22T14:34:05.268Z,4.75
2019-04-22T14:36:33.414Z,3.85
2019-04-22T14:39:03.925Z,4.20
2019-04-22T14:41:55.049Z,7.40
2019-04-22T14:47:09.241Z,5.15
2019-04-22T14:49:34.113Z,10.15
2019-04-22T14:52:10.793Z,8.95
2019-04-22T14:54:28.078Z,5.45
2019-04-22T14:56:44.433Z,5.55
2019-04-22T14:59:13.997Z,12.63
2019-04-22T15:01:43.614Z,11.70
2019-04-22T15:04:13.357Z,7.70
2019-04-22T15:06:45.146Z,8.90
2019-04-22T15:09:14.387Z,11.15
2019-04-22T15:11:55.790Z,9.58
2019-04-22T15:14:16.949Z,5.78
2019-04-22T15:17:24.977Z,6.22
2019-04-22T15:19:59.047Z,5.67
2019-04-22T15:22:28.518Z,7.20
2019-04-22T15:24:58.583Z,6.40
2019-04-22T15:27:30.958Z,6.17
2019-04-22T15:29:59.510Z,8.05
2019-04-22T15:32:29.604Z,6.80
2019-04-22T15:34:59.595Z,5.28
2019-04-22T15:37:29.125Z,8.03
2019-04-22T15:39:58.703Z,9.48
2019-04-22T15:42:33.975Z,6.45
2019-04-22T15:44:59.966Z,10.53
2019-04-22T15:47:30.982Z,9.00
2019-04-22T15:50:00.484Z,5.85
2019-04-22T15:52:36.530Z,5.42
2019-04-22T15:55:02.966Z,7.50
2019-04-22T15:57:35.973Z,6.78
2019-04-22T16:00:18.248Z,6.72
2019-04-22T16:02:34.761Z,6.70
2019-04-22T16:05:04.633Z,8.25
2019-04-22T16:07:35.839Z,11.08
2019-04-22T16:10:05.987Z,6.90
2019-04-22T16:12:44.077Z,8.25
2019-04-22T16:15:08.751Z,5.72
2019-04-22T16:17:37.745Z,5.78
2019-04-22T16:20:09.021Z,7.70
2019-04-22T16:22:57.095Z,9.40
2019-04-22T16:25:55.451Z,7.83
2019-04-22T16:28:25.172Z,7.97
2019-04-22T16:30:55.316Z,13.60
2019-04-22T16:33:25.691Z,8.28
2019-04-22T16:35:55.455Z,8.93
2019-04-22T16:38:26.755Z,9.70
2019-04-22T16:40:56.821Z,10.38
2019-04-22T16:43:26.664Z,8.98
2019-04-22T16:45:56.061Z,15.78
2019-04-22T16:48:25.633Z,7.97
2019-04-22T16:50:56.496Z,9.75
2019-04-22T16:53:27.238Z,11.57
2019-04-22T16:55:57.161Z,12.15
2019-04-22T16:58:26.738Z,8.90
2019-04-22T17:00:56.477Z,11.05
2019-04-22T17:03:44.648Z,13.50
2019-04-22T17:06:27.644Z,11.18
2019-04-22T17:08:57.295Z,11.95
2019-04-22T17:11:27.599Z,11.12
2019-04-22T17:13:57.548Z,11.90
2019-04-22T17:16:28.339Z,10.50
2019-04-22T17:18:58.493Z,15.85
2019-04-22T17:21:28.093Z,12.43
2019-04-22T17:23:57.495Z,14.15
2019-04-22T17:26:28.494Z,13.95
2019-04-22T17:29:02.413Z,13.35
2019-04-22T17:31:29.321Z,15.68
2019-04-22T17:33:59.062Z,17.25
2019-04-22T17:36:29.829Z,17.20
2019-04-22T17:39:15.945Z,17.35
2019-04-22T17:41:51.206Z,15.93
2019-04-22T17:44:39.946Z,15.68
2019-04-22T17:47:04.958Z,14.25
2019-04-22T17:49:52.176Z,16.45
2019-04-22T17:54:50.294Z,14.40
2019-04-22T17:57:22.532Z,14.85
2019-04-22T17:59:51.918Z,16.65
2019-04-22T18:02:22.362Z,17.70
2019-04-22T18:04:46.039Z,19.10
2019-04-22T18:07:35.485Z,13.62
2019-04-22T18:10:23.395Z,20.72
2019-04-22T18:15:04.368Z,23.60
2019-04-22T18:17:35.633Z,19.52
2019-04-22T18:20:02.675Z,16.87
2019-04-22T18:22:24.430Z,18.98
2019-04-22T18:24:56.781Z,20.55
2019-04-22T18:27:55.154Z,18.82
2019-04-22T18:30:20.405Z,18.30
2019-04-22T18:32:55.516Z,18.17
2019-04-22T18:35:26.611Z,16.50
2019-04-22T18:38:05.079Z,19.42
2019-04-22T18:40:34.096Z,21.80
2019-04-22T18:43:06.269Z,17.57
2019-04-22T18:47:59.862Z,20.27
2019-04-22T18:50:59.913Z,17.17
2019-04-22T18:53:53.799Z,18.85
2019-04-22T18:56:48.047Z,17.25
2019-04-22T18:59:09.560Z,20.32
2019-04-22T19:01:30.096Z,18.48
2019-04-22T19:04:09.782Z,16.87
2019-04-22T19:06:50.217Z,20.08
2019-04-22T19:09:29.576Z,16.87
2019-04-22T19:12:08.768Z,19.30
2019-04-22T19:14:37.226Z,21.50
2019-04-22T19:17:12.194Z,21.25
2019-04-22T19:22:06.669Z,19.15
2019-04-22T19:24:37.213Z,18.10
2019-04-22T19:27:09.267Z,20.60
2019-04-22T19:29:45.115Z,20.43
2019-04-22T19:32:12.997Z,24.95
2019-04-22T19:34:47.936Z,23.05
2019-04-22T19:37:17.360Z,22.85
2019-04-22T19:40:01.171Z,21.55
2019-04-22T19:42:30.473Z,23.80
2019-04-22T19:44:55.267Z,27.85
2019-04-22T19:47:34.119Z,22.42
2019-04-22T19:50:09.457Z,29.37
2019-04-22T19:52:28.895Z,23.77
2019-04-22T19:55:01.805Z,24.47
2019-04-22T19:57:32.530Z,23.20
2019-04-22T20:00:05.155Z,24.05
2019-04-22T20:03:16.640Z,29.65
2019-04-22T20:05:53.039Z,29.87
2019-04-22T20:08:26.392Z,31.10
2019-04-22T20:10:55.567Z,28.42
2019-04-22T20:13:33.887Z,23.47
2019-04-22T20:15:48.646Z,23.87
2019-04-22T20:18:34.428Z,25.27
2019-04-22T20:21:04.557Z,29.48
2019-04-22T20:23:25.621Z,29.60
2019-04-22T20:25:56.269Z,27.85
2019-04-22T20:28:39.237Z,59.90
2019-04-22T20:31:04.817Z,26.42
2019-04-22T20:33:35.373Z,25.05
2019-04-22T20:36:17.487Z,32.53
2019-04-22T20:38:34.375Z,27.80
2019-04-22T20:41:01.415Z,25.97
2019-04-22T20:43:50.238Z,36.05
2019-04-22T20:46:11.440Z,26.23
2019-04-22T20:48:43.792Z,34.27
2019-04-22T20:51:14.036Z,29.60
2019-04-22T20:53:54.313Z,38.80
2019-04-22T20:56:14.601Z,27.93
2019-04-22T20:58:45.275Z,34.55
2019-04-22T21:01:10.415Z,34.95
2019-04-22T21:03:40.861Z,30.55
2019-04-22T21:06:16.448Z,30.92
2019-04-22T21:08:54.429Z,28.98
2019-04-22T21:11:19.396Z,28.42
2019-04-22T21:13:52.931Z,27.90
2019-04-22T21:16:31.448Z,30.95
2019-04-22T21:18:46.163Z,36.73
2019-04-22T21:21:31.703Z,32.70
2019-04-22T21:23:48.586Z,40.33
2019-04-22T21:26:29.479Z,38.60
2019-04-22T21:28:58.431Z,31.25
2019-04-22T21:31:33.277Z,29.35
2019-04-22T21:33:58.831Z,34.73
2019-04-22T21:36:35.391Z,29.40
2019-04-22T21:39:05.250Z,32.28
2019-04-22T21:41:37.427Z,25.27
2019-04-22T21:44:08.734Z,29.00
2019-04-22T21:46:42.885Z,28.42
2019-04-22T21:49:16.591Z,31.37
2019-04-22T21:51:46.081Z,33.28
2019-04-22T21:54:15.441Z,33.53
2019-04-22T21:57:16.928Z,26.60
2019-04-22T21:59:34.387Z,30.80
2019-04-22T22:02:20.584Z,26.25
2019-04-22T22:04:44.416Z,29.20
2019-04-22T22:07:05.646Z,24.82
2019-04-22T22:09:50.654Z,21.25
2019-04-22T22:12:17.119Z,25.72
2019-04-22T22:14:50.036Z,23.83
2019-04-22T22:17:22.601Z,25.68
2019-04-22T22:19:54.402Z,22.35
2019-04-22T22:22:41.878Z,25.15
2019-04-22T22:24:57.024Z,20.90
2019-04-22T22:27:25.500Z,21.87
2019-04-22T22:30:06.798Z,22.22
2019-04-22T22:32:30.257Z,21.17
2019-04-22T22:35:03.020Z,20.40
2019-04-22T22:37:22.146Z,21.10
2019-04-22T22:39:51.316Z,19.40
2019-04-22T22:42:22.441Z,26.20
2019-04-22T22:44:48.630Z,18.02
2019-04-22T22:47:36.488Z,19.62
2019-04-22T22:50:07.299Z,18.20
2019-04-22T22:52:51.790Z,19.52
2019-04-22T22:55:10.478Z,22.42
2019-04-22T22:57:41.455Z,19.20
2019-04-22T23:00:11.181Z,23.20
2019-04-22T23:02:59.583Z,19.87
2019-04-22T23:05:18.486Z,19.57
2019-04-22T23:07:47.840Z,18.42
2019-04-22T23:10:16.143Z,17.48
2019-04-22T23:13:08.490Z,19.80
2019-04-22T23:15:15.469Z,19.32
2019-04-22T23:17:33.413Z,20.82
2019-04-22T23:20:03.056Z,20.45
2019-04-22T23:22:50.889Z,19.02
2019-04-22T23:25:27.544Z,19.07
2019-04-22T23:28:00.091Z,18.40
2019-04-22T23:30:45.669Z,19.07
2019-04-22T23:33:28.702Z,18.80
2019-04-22T23:36:06.404Z,18.07
2019-04-22T23:38:47.521Z,16.25
2019-04-22T23:41:42.420Z,16.85
2019-04-22T23:44:10.122Z,18.00
2019-04-22T23:46:39.125Z,19.42
2019-04-22T23:49:08.845Z,20.10
2019-04-22T23:51:51.682Z,18.50
2019-04-22T23:54:12.802Z,17.52
2019-04-22T23:56:43.768Z,21.20
